KSPB

Scappoose Industrial Airpark

Scappoose, Oregon, USA
METAR KSPB 260353Z AUTO 32006KT 10SM CLR 13/05 A3005 RMK AO2 SLP177 T01330050
Observed Flight Rules
May-26 @ 03:53 UTC (30 minutes ago) Visual Flight Rules
Wind Visibility Clouds
320° at 6 knots 10 miles
  • Clear skies
Temperatures Readings
Current 13°C / 55°F
Dewpoint 5°C / 41°F
Humidity 59%
Altimeter 30.05" Hg
Pressure 1017.7 hPa
Elevation 14
METAR KSPB 260353Z AUTO 32006KT 10SM CLR 13/05 A3005 RMK AO2 SLP177 T01330050
Observed Flight Rules
May-26 @ 03:53 UTC
(30 minutes ago)
VFR
Wind Visibility
320° at 6 knots 10 miles
Clouds
  • Clear skies
Temperature Dewpoint
13°C / 55°F 5°C / 41°F
Humidity Altimeter Pressure
59% 30.05" Hg 1017.7 hPa